createdAt,value
2022-10-31T00:00:22.747Z,15.59
2022-10-31T00:01:22.741Z,15.64
2022-10-31T00:02:22.780Z,15.64
2022-10-31T00:03:22.690Z,15.68
2022-10-31T00:04:22.677Z,15.54
2022-10-31T00:05:22.658Z,15.54
2022-10-31T00:06:22.669Z,15.51
2022-10-31T00:07:22.649Z,15.55
2022-10-31T00:08:22.675Z,15.61
2022-10-31T00:09:22.607Z,15.57
2022-10-31T00:10:22.592Z,15.64
2022-10-31T00:11:22.593Z,15.57
2022-10-31T00:12:22.576Z,15.68
2022-10-31T00:14:22.568Z,15.64
2022-10-31T00:15:22.558Z,15.54
2022-10-31T00:16:22.532Z,15.57
2022-10-31T00:17:22.520Z,15.54
2022-10-31T00:18:22.499Z,15.57
2022-10-31T00:19:22.506Z,15.59
2022-10-31T00:20:22.472Z,15.54
2022-10-31T00:21:22.475Z,15.58
2022-10-31T00:22:22.451Z,15.61
2022-10-31T00:23:22.461Z,15.58
2022-10-31T00:24:22.432Z,15.59
2022-10-31T00:25:22.431Z,15.54
2022-10-31T00:26:22.408Z,15.61
2022-10-31T00:27:22.397Z,15.55
2022-10-31T00:28:22.406Z,15.57
2022-10-31T00:29:22.377Z,15.59
2022-10-31T00:30:22.395Z,15.62
2022-10-31T00:31:22.374Z,15.61
2022-10-31T00:32:22.342Z,15.58
2022-10-31T00:33:22.331Z,15.61
2022-10-31T00:34:22.321Z,15.57
2022-10-31T00:35:22.494Z,15.57
2022-10-31T00:36:22.335Z,15.59
2022-10-31T00:37:22.299Z,15.55
2022-10-31T00:38:22.279Z,15.52
2022-10-31T00:39:22.288Z,15.58
2022-10-31T00:40:22.263Z,15.52
2022-10-31T00:41:22.259Z,15.49
2022-10-31T00:42:22.250Z,15.51
2022-10-31T00:43:22.224Z,15.52
2022-10-31T00:44:22.205Z,15.49
2022-10-31T00:45:22.199Z,15.52
2022-10-31T00:46:22.191Z,15.51
2022-10-31T00:47:22.187Z,15.52
2022-10-31T00:48:22.171Z,15.49
2022-10-31T00:49:22.156Z,15.52
2022-10-31T00:50:22.144Z,15.54
2022-10-31T00:51:22.130Z,15.46
2022-10-31T00:52:22.134Z,15.54
2022-10-31T00:53:22.117Z,15.44
2022-10-31T00:54:22.108Z,15.46
2022-10-31T00:55:22.114Z,15.52
2022-10-31T00:56:22.078Z,15.40
2022-10-31T00:57:22.076Z,15.42
2022-10-31T00:58:22.090Z,15.47
2022-10-31T00:59:22.053Z,15.37
2022-10-31T01:00:22.028Z,15.37
2022-10-31T01:01:22.201Z,15.28
2022-10-31T01:02:22.202Z,15.25
2022-10-31T01:03:22.008Z,15.27
2022-10-31T01:04:22.013Z,15.24
2022-10-31T01:05:21.978Z,15.25
2022-10-31T01:06:21.966Z,15.25
2022-10-31T01:07:21.951Z,15.28
2022-10-31T01:08:21.946Z,15.19
2022-10-31T01:09:21.938Z,15.22
2022-10-31T01:10:21.932Z,15.29
2022-10-31T01:11:21.939Z,15.25
2022-10-31T01:12:21.918Z,15.27
2022-10-31T01:14:21.884Z,15.25
2022-10-31T01:15:21.907Z,15.21
2022-10-31T01:16:21.869Z,15.25
2022-10-31T01:17:21.854Z,15.27
2022-10-31T01:18:21.850Z,15.24
2022-10-31T01:19:21.832Z,15.14
2022-10-31T01:20:21.813Z,15.27
2022-10-31T01:21:21.827Z,15.11
2022-10-31T01:22:21.790Z,15.19
2022-10-31T01:23:21.778Z,15.21
2022-10-31T01:24:21.779Z,15.27
2022-10-31T01:25:21.778Z,15.25
2022-10-31T01:26:21.753Z,15.19
2022-10-31T01:27:21.776Z,15.27
2022-10-31T01:28:21.781Z,15.21
2022-10-31T01:29:21.711Z,15.27
2022-10-31T01:30:21.713Z,15.27
2022-10-31T01:31:21.719Z,15.31
2022-10-31T01:32:21.681Z,15.28
2022-10-31T01:33:21.678Z,15.31
2022-10-31T01:34:21.667Z,15.28
2022-10-31T01:35:21.659Z,15.27
2022-10-31T01:36:21.649Z,15.28
2022-10-31T01:37:21.633Z,15.25
2022-10-31T01:38:21.624Z,15.27
2022-10-31T01:39:21.629Z,15.29
2022-10-31T01:40:21.596Z,15.24
2022-10-31T01:41:21.594Z,15.29
2022-10-31T01:42:21.590Z,15.22
2022-10-31T01:44:21.557Z,15.29
2022-10-31T01:45:21.606Z,15.21
2022-10-31T01:46:21.532Z,15.27
2022-10-31T01:47:21.526Z,15.31
2022-10-31T01:48:21.525Z,15.28
2022-10-31T01:49:21.526Z,15.28
2022-10-31T01:50:21.494Z,15.33
2022-10-31T01:51:21.481Z,15.27
2022-10-31T01:52:21.480Z,15.27
2022-10-31T01:53:25.892Z,15.22
2022-10-31T01:54:22.449Z,15.28
2022-10-31T01:55:22.580Z,15.27
2022-10-31T01:56:21.421Z,15.25
2022-10-31T01:57:21.417Z,15.28
2022-10-31T01:58:21.422Z,15.27
2022-10-31T01:59:21.415Z,15.35
2022-10-31T02:00:21.383Z,15.29
2022-10-31T02:01:21.562Z,15.27
2022-10-31T02:02:21.527Z,15.28
2022-10-31T02:03:21.340Z,15.22
2022-10-31T02:04:21.369Z,15.24
2022-10-31T02:05:21.323Z,15.24
2022-10-31T02:06:21.313Z,15.25
2022-10-31T02:07:21.314Z,15.19
2022-10-31T02:08:21.297Z,15.24
2022-10-31T02:09:21.281Z,15.27
2022-10-31T02:10:21.292Z,15.27
2022-10-31T02:11:21.257Z,15.27
2022-10-31T02:12:21.264Z,15.21
2022-10-31T02:13:21.297Z,15.25
2022-10-31T02:14:21.226Z,15.11
2022-10-31T02:15:21.246Z,15.27
2022-10-31T02:16:21.212Z,15.25
2022-10-31T02:17:21.199Z,15.18
2022-10-31T02:18:21.191Z,15.31
2022-10-31T02:19:21.182Z,15.17
2022-10-31T02:20:21.185Z,15.22
2022-10-31T02:21:21.154Z,15.22
2022-10-31T02:22:21.143Z,15.24
2022-10-31T02:23:21.126Z,15.10
2022-10-31T02:24:21.114Z,15.25
2022-10-31T02:25:21.121Z,15.28
2022-10-31T02:26:21.132Z,15.18
2022-10-31T02:27:21.103Z,15.19
2022-10-31T02:28:21.087Z,15.22
2022-10-31T02:29:21.072Z,15.14
2022-10-31T02:30:21.065Z,15.15
2022-10-31T02:31:21.060Z,15.24
2022-10-31T02:32:21.058Z,15.25
2022-10-31T02:33:21.027Z,15.19
2022-10-31T02:34:21.016Z,15.11
2022-10-31T02:35:21.000Z,15.31
2022-10-31T02:36:20.983Z,15.15
2022-10-31T02:37:20.975Z,15.18
2022-10-31T02:38:20.986Z,15.21
2022-10-31T02:39:20.961Z,15.25
2022-10-31T02:40:20.958Z,15.22
2022-10-31T02:41:20.952Z,15.21
2022-10-31T02:42:20.944Z,15.21
2022-10-31T02:43:20.920Z,15.24
2022-10-31T02:44:20.906Z,15.19
2022-10-31T02:45:20.889Z,15.10
2022-10-31T02:46:20.884Z,15.17
2022-10-31T02:47:20.921Z,15.11
2022-10-31T02:48:20.855Z,15.06
2022-10-31T02:49:20.847Z,15.10
2022-10-31T02:50:20.842Z,15.04
2022-10-31T02:51:20.829Z,15.04
2022-10-31T02:52:20.819Z,15.02
2022-10-31T02:53:20.814Z,15.04
2022-10-31T02:54:20.792Z,15.04
2022-10-31T02:55:20.788Z,15.09
2022-10-31T02:56:20.776Z,14.96
2022-10-31T02:57:20.780Z,15.04
2022-10-31T02:58:20.774Z,15.07
2022-10-31T02:59:20.743Z,15.02
2022-10-31T03:00:20.725Z,15.03
2022-10-31T03:01:20.885Z,15.03
2022-10-31T03:02:20.802Z,14.97
2022-10-31T03:03:20.733Z,14.97
2022-10-31T03:04:20.691Z,14.92
2022-10-31T03:05:20.672Z,14.97
2022-10-31T03:06:20.670Z,14.97
2022-10-31T03:07:20.657Z,14.89
2022-10-31T03:08:20.657Z,14.82
2022-10-31T03:09:20.636Z,14.82
2022-10-31T03:10:20.630Z,14.69
2022-10-31T03:11:20.617Z,14.68
2022-10-31T03:12:20.611Z,14.70
2022-10-31T03:13:20.659Z,14.69
2022-10-31T03:14:20.582Z,14.63
2022-10-31T03:15:20.563Z,14.66
2022-10-31T03:16:20.553Z,14.59
2022-10-31T03:17:20.550Z,14.68
2022-10-31T03:18:20.553Z,14.59
2022-10-31T03:19:20.568Z,14.54
2022-10-31T03:20:20.519Z,14.60
2022-10-31T03:21:20.509Z,14.59
2022-10-31T03:22:20.513Z,14.59
2022-10-31T03:23:20.483Z,14.60
2022-10-31T03:24:20.464Z,14.59
2022-10-31T03:25:20.476Z,14.54
2022-10-31T03:26:20.456Z,14.54
2022-10-31T03:27:20.441Z,14.59
2022-10-31T03:28:20.432Z,14.53
2022-10-31T03:29:20.419Z,14.54
2022-10-31T03:30:20.399Z,14.45
2022-10-31T03:31:20.411Z,14.58
2022-10-31T03:32:20.395Z,14.58
2022-10-31T03:33:20.367Z,14.55
2022-10-31T03:34:20.360Z,14.54
2022-10-31T03:35:20.369Z,14.58
2022-10-31T03:36:20.351Z,14.60
2022-10-31T03:37:20.332Z,14.58
2022-10-31T03:38:20.323Z,14.55
2022-10-31T03:39:20.311Z,14.44
2022-10-31T03:40:20.327Z,14.53
2022-10-31T03:41:20.288Z,14.43
2022-10-31T03:42:20.270Z,14.54
2022-10-31T03:43:20.267Z,14.59
2022-10-31T03:44:20.248Z,14.41
2022-10-31T03:45:20.247Z,14.55
2022-10-31T03:46:20.259Z,14.44
2022-10-31T03:47:20.221Z,14.53
2022-10-31T03:48:20.208Z,14.58
2022-10-31T03:49:20.200Z,14.58
2022-10-31T03:50:20.184Z,14.60
2022-10-31T03:51:20.196Z,14.62
2022-10-31T03:52:20.175Z,14.65
2022-10-31T03:53:20.186Z,14.72
2022-10-31T03:54:20.184Z,14.68
2022-10-31T03:55:20.139Z,14.69
2022-10-31T03:56:20.120Z,14.72
2022-10-31T03:57:20.128Z,14.73
2022-10-31T03:59:20.091Z,14.63
2022-10-31T04:00:20.094Z,14.65
2022-10-31T04:01:20.268Z,14.65
2022-10-31T04:02:20.306Z,14.65
2022-10-31T04:03:20.044Z,14.65
2022-10-31T04:04:20.027Z,14.65
2022-10-31T04:05:20.033Z,14.78
2022-10-31T04:06:20.034Z,14.82
2022-10-31T04:07:20.018Z,14.84
2022-10-31T04:08:19.987Z,14.78
2022-10-31T04:09:19.976Z,14.77
2022-10-31T04:10:19.981Z,14.88
2022-10-31T04:11:19.980Z,14.79
2022-10-31T04:12:19.964Z,14.77
2022-10-31T04:14:19.920Z,14.68
2022-10-31T04:15:19.910Z,14.70
2022-10-31T04:16:19.923Z,14.69
2022-10-31T04:17:19.918Z,14.70
2022-10-31T04:18:19.887Z,14.55
2022-10-31T04:19:19.873Z,14.58
2022-10-31T04:20:19.861Z,14.59
2022-10-31T04:21:19.849Z,14.59
2022-10-31T04:22:19.838Z,14.59
2022-10-31T04:23:19.859Z,14.63
2022-10-31T04:24:19.821Z,14.53
2022-10-31T04:25:19.799Z,14.63
2022-10-31T04:26:19.789Z,14.58
2022-10-31T04:27:19.806Z,14.55
2022-10-31T04:29:19.824Z,14.68
2022-10-31T04:30:19.758Z,14.69
2022-10-31T04:31:19.743Z,14.66
2022-10-31T04:32:19.724Z,14.69
2022-10-31T04:33:19.751Z,14.66
2022-10-31T04:34:19.712Z,14.70
2022-10-31T04:35:19.696Z,14.65
2022-10-31T04:36:19.682Z,14.70
2022-10-31T04:37:19.677Z,14.68
2022-10-31T04:38:19.670Z,14.69
2022-10-31T04:39:24.133Z,14.65
2022-10-31T04:40:20.646Z,14.72
2022-10-31T04:41:19.637Z,14.70
2022-10-31T04:42:19.622Z,14.69
2022-10-31T04:44:19.634Z,14.82
2022-10-31T04:45:21.282Z,14.77
2022-10-31T04:46:19.585Z,14.78
2022-10-31T04:47:19.564Z,14.77
2022-10-31T04:48:19.559Z,14.84
2022-10-31T04:49:19.547Z,14.88
2022-10-31T04:50:19.605Z,14.86
2022-10-31T04:51:19.532Z,14.77
2022-10-31T04:52:19.513Z,14.78
2022-10-31T04:53:19.499Z,14.85
2022-10-31T04:54:19.487Z,14.85
2022-10-31T04:55:19.515Z,14.91
2022-10-31T04:56:19.479Z,14.92
2022-10-31T04:57:19.471Z,14.86
2022-10-31T04:58:19.454Z,14.82
2022-10-31T04:59:19.432Z,14.78
2022-10-31T05:00:19.425Z,14.88
2022-10-31T05:01:19.627Z,14.85
2022-10-31T05:02:19.497Z,14.79
2022-10-31T05:03:19.388Z,14.79
2022-10-31T05:04:19.375Z,14.89
2022-10-31T05:05:19.377Z,14.84
2022-10-31T05:06:19.378Z,14.84
2022-10-31T05:07:19.344Z,14.84
2022-10-31T05:08:19.361Z,14.88
2022-10-31T05:09:19.321Z,14.84
2022-10-31T05:10:19.340Z,14.82
2022-10-31T05:11:19.327Z,14.81
2022-10-31T05:12:19.314Z,14.82
2022-10-31T05:13:19.284Z,14.82
2022-10-31T05:14:19.288Z,14.78
2022-10-31T05:15:19.272Z,14.86
2022-10-31T05:16:19.250Z,14.84
2022-10-31T05:17:19.262Z,14.79
2022-10-31T05:18:19.242Z,14.66
2022-10-31T05:19:19.225Z,14.78
2022-10-31T05:20:19.210Z,14.66
2022-10-31T05:21:19.202Z,14.63
2022-10-31T05:22:19.194Z,14.69
2022-10-31T05:23:19.185Z,14.66
2022-10-31T05:24:19.166Z,14.70
2022-10-31T05:25:19.175Z,14.78
2022-10-31T05:26:19.146Z,14.78
2022-10-31T05:27:19.141Z,14.78
2022-10-31T05:28:19.124Z,14.82
2022-10-31T05:29:19.105Z,14.73
2022-10-31T05:30:19.115Z,14.77
2022-10-31T05:31:19.080Z,14.81
2022-10-31T05:32:19.078Z,14.78
2022-10-31T05:33:19.069Z,14.73
2022-10-31T05:34:19.060Z,14.84
2022-10-31T05:35:19.045Z,14.78
2022-10-31T05:36:19.067Z,14.73
2022-10-31T05:37:19.020Z,14.72
2022-10-31T05:38:19.012Z,14.73
2022-10-31T05:39:18.999Z,14.81
2022-10-31T05:40:18.981Z,14.77
2022-10-31T05:41:18.972Z,14.72
2022-10-31T05:42:18.980Z,14.77
2022-10-31T05:43:18.979Z,14.77
2022-10-31T05:44:18.945Z,14.79
2022-10-31T05:45:18.935Z,14.69
2022-10-31T05:46:18.942Z,14.85
2022-10-31T05:47:18.916Z,14.77
2022-10-31T05:48:18.902Z,14.72
2022-10-31T05:49:18.892Z,14.77
2022-10-31T05:50:18.874Z,14.69
2022-10-31T05:51:18.884Z,14.68
2022-10-31T05:52:18.877Z,14.77
2022-10-31T05:53:18.841Z,14.68
2022-10-31T05:54:18.829Z,14.65
2022-10-31T05:55:18.826Z,14.66
2022-10-31T05:56:18.815Z,14.68
2022-10-31T05:57:18.795Z,14.73
2022-10-31T05:58:18.800Z,14.81
2022-10-31T05:59:18.789Z,14.77
2022-10-31T06:00:18.771Z,14.68
2022-10-31T06:01:18.790Z,14.73
2022-10-31T06:02:18.745Z,14.70
2022-10-31T06:03:18.753Z,14.65
2022-10-31T06:04:18.803Z,14.77
2022-10-31T06:05:18.715Z,14.68
2022-10-31T06:06:18.696Z,14.69
2022-10-31T06:07:18.699Z,14.70
2022-10-31T06:08:18.686Z,14.68
2022-10-31T06:09:18.679Z,14.73
2022-10-31T06:10:18.656Z,14.82
2022-10-31T06:11:18.651Z,14.66
2022-10-31T06:12:18.643Z,14.81
2022-10-31T06:13:18.636Z,14.82
2022-10-31T06:14:18.633Z,14.77
2022-10-31T06:15:23.513Z,14.82
2022-10-31T06:16:19.599Z,14.78
2022-10-31T06:17:18.579Z,14.86
2022-10-31T06:18:18.577Z,14.91
2022-10-31T06:19:18.580Z,14.78
2022-10-31T06:20:18.547Z,14.86
2022-10-31T06:21:19.244Z,14.86
2022-10-31T06:22:18.531Z,14.79
2022-10-31T06:23:18.542Z,14.81
2022-10-31T06:24:18.523Z,14.81
2022-10-31T06:25:18.519Z,14.79
2022-10-31T06:26:18.486Z,14.79
2022-10-31T06:27:18.469Z,14.79
2022-10-31T06:28:18.467Z,14.86
2022-10-31T06:29:18.454Z,14.84
2022-10-31T06:30:18.432Z,14.92
2022-10-31T06:31:18.461Z,14.84
2022-10-31T06:32:18.424Z,14.91
2022-10-31T06:33:18.422Z,14.89
2022-10-31T06:34:18.394Z,14.92
2022-10-31T06:35:18.393Z,14.94
2022-10-31T06:36:18.429Z,14.97
2022-10-31T06:37:18.361Z,14.99
2022-10-31T06:38:18.354Z,14.99
2022-10-31T06:39:18.337Z,14.96
2022-10-31T06:40:18.335Z,14.92
2022-10-31T06:41:18.335Z,14.99
2022-10-31T06:42:18.317Z,15.06
2022-10-31T06:43:18.294Z,14.96
2022-10-31T06:44:18.292Z,15.02
2022-10-31T06:45:18.274Z,15.00
2022-10-31T06:46:18.272Z,15.04
2022-10-31T06:47:18.296Z,15.09
2022-10-31T06:48:18.792Z,14.97
2022-10-31T06:49:18.234Z,15.17
2022-10-31T06:50:18.349Z,15.14
2022-10-31T06:51:18.212Z,15.10
2022-10-31T06:52:18.205Z,15.11
2022-10-31T06:53:18.205Z,15.10
2022-10-31T06:54:18.182Z,15.07
2022-10-31T06:55:18.171Z,15.10
2022-10-31T06:56:18.163Z,15.10
2022-10-31T06:57:18.155Z,15.15
2022-10-31T06:58:18.159Z,15.24
2022-10-31T06:59:18.140Z,15.21
2022-10-31T07:00:18.112Z,15.25
2022-10-31T07:01:18.230Z,15.15
2022-10-31T07:02:18.165Z,15.24
2022-10-31T07:03:18.123Z,15.25
2022-10-31T07:04:18.088Z,15.21
2022-10-31T07:05:18.063Z,15.27
2022-10-31T07:06:18.054Z,15.29
2022-10-31T07:07:18.045Z,15.35
2022-10-31T07:08:18.044Z,15.44
2022-10-31T07:09:18.013Z,15.42
2022-10-31T07:10:18.003Z,15.49
2022-10-31T07:11:18.000Z,15.58
2022-10-31T07:12:18.008Z,15.55
2022-10-31T07:13:17.984Z,15.61
2022-10-31T07:14:17.971Z,15.62
2022-10-31T07:15:17.954Z,15.79
2022-10-31T07:16:17.940Z,15.76
2022-10-31T07:17:17.932Z,15.80
2022-10-31T07:18:17.942Z,15.84
2022-10-31T07:19:17.935Z,15.92
2022-10-31T07:20:17.898Z,15.92
2022-10-31T07:21:17.892Z,16.09
2022-10-31T07:22:17.885Z,16.09
2022-10-31T07:23:17.880Z,16.21
2022-10-31T07:24:17.850Z,16.13
2022-10-31T07:25:17.852Z,16.17
2022-10-31T07:26:17.824Z,16.28
2022-10-31T07:27:17.836Z,16.42
2022-10-31T07:28:17.822Z,16.42
2022-10-31T07:29:17.811Z,16.54
2022-10-31T07:30:17.807Z,16.57
2022-10-31T07:31:17.805Z,16.66
2022-10-31T07:32:17.776Z,16.68
2022-10-31T07:33:17.764Z,16.83
2022-10-31T07:34:17.761Z,16.86
2022-10-31T07:35:17.744Z,16.94
2022-10-31T07:36:17.726Z,16.97
2022-10-31T07:37:17.708Z,17.01
2022-10-31T07:38:17.723Z,17.02
2022-10-31T07:39:17.755Z,17.12
2022-10-31T07:40:17.691Z,17.16
2022-10-31T07:41:17.693Z,17.27
2022-10-31T07:42:17.668Z,17.26
2022-10-31T07:43:17.680Z,17.34
2022-10-31T07:44:17.638Z,17.34
2022-10-31T07:45:17.634Z,17.36
2022-10-31T07:46:17.617Z,17.44
2022-10-31T07:47:17.623Z,17.49
2022-10-31T07:48:17.634Z,17.54
2022-10-31T07:49:17.592Z,17.52
2022-10-31T07:50:17.729Z,17.54
2022-10-31T07:51:17.573Z,17.59
2022-10-31T07:52:17.557Z,17.71
2022-10-31T07:53:17.646Z,17.68
2022-10-31T07:54:17.554Z,17.71
2022-10-31T07:55:17.522Z,17.64
2022-10-31T07:56:17.528Z,17.67
2022-10-31T07:57:20.254Z,17.71
2022-10-31T07:58:17.503Z,17.68
2022-10-31T07:59:17.484Z,17.71
2022-10-31T08:00:17.469Z,17.74
2022-10-31T08:01:17.457Z,17.74
2022-10-31T08:02:17.446Z,17.74
2022-10-31T08:03:17.431Z,17.83
2022-10-31T08:04:17.429Z,17.74
2022-10-31T08:05:17.420Z,17.71
2022-10-31T08:06:17.398Z,17.70
2022-10-31T08:07:17.417Z,17.65
2022-10-31T08:08:17.551Z,17.64
2022-10-31T08:09:17.372Z,17.60
2022-10-31T08:10:17.375Z,17.56
2022-10-31T08:11:17.343Z,17.63
2022-10-31T08:12:17.348Z,17.64
2022-10-31T08:13:17.328Z,17.63
2022-10-31T08:14:17.301Z,17.63
2022-10-31T08:15:17.298Z,17.67
2022-10-31T08:16:17.297Z,17.56
2022-10-31T08:17:17.274Z,17.68
2022-10-31T08:18:17.260Z,17.72
2022-10-31T08:19:17.260Z,17.71
2022-10-31T08:20:17.237Z,17.72
2022-10-31T08:21:17.252Z,17.70
2022-10-31T08:22:17.215Z,17.68
2022-10-31T08:23:17.228Z,17.70
2022-10-31T08:24:17.216Z,17.71
2022-10-31T08:25:17.192Z,17.71
2022-10-31T08:26:17.189Z,17.70
2022-10-31T08:27:17.193Z,17.72
2022-10-31T08:28:17.154Z,17.70
2022-10-31T08:29:17.144Z,17.68
2022-10-31T08:30:17.134Z,17.68
2022-10-31T08:31:17.174Z,17.71
2022-10-31T08:32:17.107Z,17.70
2022-10-31T08:33:17.119Z,17.70
2022-10-31T08:34:17.099Z,17.68
2022-10-31T08:35:17.088Z,17.71
2022-10-31T08:36:17.070Z,17.76
2022-10-31T08:37:17.124Z,17.71
2022-10-31T08:38:17.094Z,17.72
2022-10-31T08:39:17.046Z,17.79
2022-10-31T08:40:17.032Z,18.00
2022-10-31T08:41:17.018Z,18.03
2022-10-31T08:42:17.008Z,18.13
2022-10-31T08:43:17.008Z,18.18
2022-10-31T08:44:16.986Z,18.23
2022-10-31T08:45:16.981Z,18.20
2022-10-31T08:46:16.962Z,18.56
2022-10-31T08:47:16.965Z,18.68
2022-10-31T08:48:16.937Z,18.81
2022-10-31T08:49:16.932Z,18.93
2022-10-31T08:50:16.925Z,19.07
2022-10-31T08:51:16.907Z,19.09
2022-10-31T08:52:16.891Z,19.19
2022-10-31T08:53:16.895Z,19.27
2022-10-31T08:54:16.875Z,19.49
2022-10-31T08:55:16.885Z,19.64
2022-10-31T08:56:16.847Z,19.70
2022-10-31T08:57:16.872Z,19.76
2022-10-31T08:58:16.833Z,19.69
2022-10-31T08:59:16.814Z,19.59
2022-10-31T09:00:16.827Z,19.54
2022-10-31T09:01:17.005Z,19.52
2022-10-31T09:02:16.812Z,19.54
2022-10-31T09:03:16.794Z,19.49
2022-10-31T09:04:16.756Z,19.58
2022-10-31T09:05:16.759Z,19.47
2022-10-31T09:06:16.859Z,19.36
2022-10-31T09:07:20.929Z,19.37
2022-10-31T09:08:17.308Z,19.34
2022-10-31T09:09:16.702Z,19.34
2022-10-31T09:10:16.696Z,19.30
2022-10-31T09:11:16.714Z,19.26
2022-10-31T09:12:16.670Z,19.45
2022-10-31T09:13:16.662Z,19.31
2022-10-31T09:14:16.654Z,19.36
2022-10-31T09:15:16.658Z,19.37
2022-10-31T09:16:16.640Z,19.26
2022-10-31T09:17:16.629Z,19.19
2022-10-31T09:18:16.605Z,19.04
2022-10-31T09:19:16.598Z,18.83
2022-10-31T09:20:16.597Z,18.83
2022-10-31T09:21:16.569Z,18.75
2022-10-31T09:22:16.580Z,18.66
2022-10-31T09:23:16.557Z,18.73
2022-10-31T09:24:16.547Z,18.86
2022-10-31T09:25:16.536Z,18.89
2022-10-31T09:26:16.521Z,18.90
2022-10-31T09:27:16.592Z,19.09
2022-10-31T09:28:16.519Z,19.19
2022-10-31T09:29:16.489Z,19.19
2022-10-31T09:30:16.492Z,19.48
2022-10-31T09:31:16.464Z,19.49
2022-10-31T09:32:16.451Z,19.54
2022-10-31T09:33:16.465Z,19.59
2022-10-31T09:34:16.420Z,19.89
2022-10-31T09:35:18.190Z,20.06
2022-10-31T09:36:16.421Z,19.94
2022-10-31T09:37:16.404Z,19.92
2022-10-31T09:38:16.404Z,19.82
2022-10-31T09:39:16.389Z,19.59
2022-10-31T09:40:16.359Z,19.51
2022-10-31T09:41:16.379Z,19.36
2022-10-31T09:42:16.336Z,19.37
2022-10-31T09:43:16.342Z,19.21
2022-10-31T09:44:16.318Z,19.07
2022-10-31T09:45:16.324Z,19.07
2022-10-31T09:46:16.310Z,18.98
2022-10-31T09:47:16.297Z,18.88
2022-10-31T09:48:16.278Z,18.81
2022-10-31T09:49:16.277Z,18.81
2022-10-31T09:50:16.256Z,18.77
2022-10-31T09:51:16.277Z,18.68
2022-10-31T09:52:16.248Z,18.68
2022-10-31T09:53:16.219Z,18.59
2022-10-31T09:54:16.204Z,18.66
2022-10-31T09:55:16.202Z,18.62
2022-10-31T09:56:16.212Z,18.62
2022-10-31T09:57:16.213Z,18.62
2022-10-31T09:58:16.169Z,18.66
2022-10-31T09:59:16.188Z,18.65
2022-10-31T10:00:16.151Z,18.47
2022-10-31T10:01:16.191Z,18.56
2022-10-31T10:02:16.144Z,18.68
2022-10-31T10:03:16.141Z,18.65
2022-10-31T10:04:19.828Z,18.83
2022-10-31T10:05:16.090Z,18.78
2022-10-31T10:06:16.082Z,18.84
2022-10-31T10:07:16.065Z,18.95
2022-10-31T10:08:16.055Z,18.95
2022-10-31T10:09:16.105Z,19.14
2022-10-31T10:10:16.045Z,19.09
2022-10-31T10:11:16.018Z,19.18
2022-10-31T10:12:16.010Z,19.19
2022-10-31T10:13:16.010Z,19.29
2022-10-31T10:14:15.997Z,19.29
2022-10-31T10:15:15.991Z,19.31
2022-10-31T10:16:15.959Z,19.30
2022-10-31T10:17:15.954Z,19.33
2022-10-31T10:18:15.949Z,19.33
2022-10-31T10:19:15.957Z,19.29
2022-10-31T10:20:19.809Z,19.27
2022-10-31T10:21:16.915Z,19.24
2022-10-31T10:22:15.904Z,19.22
2022-10-31T10:23:15.923Z,19.16
2022-10-31T10:24:15.882Z,19.27
2022-10-31T10:25:15.874Z,19.31
2022-10-31T10:26:15.875Z,19.39
2022-10-31T10:27:18.005Z,19.47
2022-10-31T10:28:15.834Z,19.49
2022-10-31T10:29:15.815Z,19.58
2022-10-31T10:30:15.808Z,19.64
2022-10-31T10:31:15.837Z,19.59
2022-10-31T10:32:15.816Z,19.69
2022-10-31T10:33:15.776Z,19.71
2022-10-31T10:34:15.766Z,19.82
2022-10-31T10:35:15.765Z,19.82
2022-10-31T10:36:15.762Z,19.79
2022-10-31T10:37:15.754Z,19.79
2022-10-31T10:38:15.740Z,19.85
2022-10-31T10:39:15.756Z,19.88
2022-10-31T10:40:15.746Z,19.88
2022-10-31T10:41:15.702Z,19.86
2022-10-31T10:42:15.674Z,19.84
2022-10-31T10:43:15.679Z,19.77
2022-10-31T10:44:15.664Z,19.82
2022-10-31T10:45:15.668Z,19.89
2022-10-31T10:46:15.636Z,19.89
2022-10-31T10:47:15.645Z,19.88
2022-10-31T10:48:15.630Z,19.92
2022-10-31T10:49:15.640Z,19.86
2022-10-31T10:50:15.592Z,19.79
2022-10-31T10:51:25.752Z,19.89
2022-10-31T10:52:39.763Z,19.86
2022-10-31T10:53:16.571Z,19.81
2022-10-31T10:54:15.553Z,19.85
2022-10-31T10:55:15.559Z,19.84
2022-10-31T10:56:15.523Z,19.79
2022-10-31T10:57:15.522Z,19.74
2022-10-31T10:58:15.538Z,19.85
2022-10-31T10:59:15.487Z,19.76
2022-10-31T11:00:15.502Z,19.76
2022-10-31T11:02:15.500Z,19.79
2022-10-31T11:03:15.501Z,19.85
2022-10-31T11:04:15.444Z,19.92
2022-10-31T11:05:15.429Z,19.89
2022-10-31T11:06:15.436Z,19.99
2022-10-31T11:07:15.406Z,19.95
2022-10-31T11:08:15.414Z,19.94
2022-10-31T11:09:15.402Z,19.92
2022-10-31T11:10:15.367Z,19.92
2022-10-31T11:11:15.372Z,20.00
2022-10-31T11:12:15.401Z,20.04
2022-10-31T11:13:15.350Z,20.06
2022-10-31T11:14:15.324Z,20.03
2022-10-31T11:15:15.346Z,20.04
2022-10-31T11:16:15.327Z,20.09
2022-10-31T11:17:15.299Z,20.07
2022-10-31T11:18:15.319Z,20.16
2022-10-31T11:19:15.312Z,20.13
2022-10-31T11:20:18.135Z,20.18
2022-10-31T11:21:15.259Z,20.26
2022-10-31T11:22:15.246Z,20.25
2022-10-31T11:23:15.246Z,20.28
2022-10-31T11:24:15.217Z,20.36
2022-10-31T11:25:15.228Z,20.40
2022-10-31T11:26:15.196Z,20.43
2022-10-31T11:27:15.194Z,20.44
2022-10-31T11:28:15.187Z,20.48
2022-10-31T11:29:15.183Z,20.62
2022-10-31T11:30:15.162Z,20.60
2022-10-31T11:31:15.176Z,20.60
2022-10-31T11:32:15.140Z,20.62
2022-10-31T11:33:15.124Z,20.66
2022-10-31T11:34:15.114Z,20.69
2022-10-31T11:35:15.114Z,20.75
2022-10-31T11:36:15.111Z,20.70
2022-10-31T11:37:15.102Z,20.88
2022-10-31T11:38:15.083Z,20.80
2022-10-31T11:39:15.055Z,20.80
2022-10-31T11:40:15.059Z,20.82
2022-10-31T11:41:15.039Z,20.96
2022-10-31T11:42:15.049Z,20.87
2022-10-31T11:43:15.009Z,20.93
2022-10-31T11:44:15.059Z,20.96
2022-10-31T11:45:15.005Z,20.93
2022-10-31T11:46:15.007Z,21.07
2022-10-31T11:47:14.964Z,21.02
2022-10-31T11:48:14.951Z,20.97
2022-10-31T11:49:14.943Z,21.12
2022-10-31T11:50:14.939Z,20.97
2022-10-31T11:51:14.933Z,21.02
2022-10-31T11:52:14.926Z,20.96
2022-10-31T11:53:14.911Z,20.88
2022-10-31T11:54:14.892Z,20.84
2022-10-31T11:55:14.873Z,20.74
2022-10-31T11:56:14.876Z,20.75
2022-10-31T11:57:14.864Z,20.70
2022-10-31T11:58:14.875Z,20.72
2022-10-31T11:59:14.835Z,20.82
2022-10-31T12:00:14.913Z,20.69
2022-10-31T12:01:14.860Z,20.74
2022-10-31T12:02:14.991Z,20.82
2022-10-31T12:03:14.789Z,20.69
2022-10-31T12:04:14.778Z,20.75
2022-10-31T12:05:14.770Z,20.81
2022-10-31T12:06:14.770Z,20.81
2022-10-31T12:07:14.767Z,20.84
2022-10-31T12:08:14.760Z,20.80
2022-10-31T12:09:14.780Z,20.81
2022-10-31T12:10:14.722Z,20.87
2022-10-31T12:11:14.702Z,20.90
2022-10-31T12:12:14.709Z,20.96
2022-10-31T12:13:14.685Z,20.92
2022-10-31T12:14:14.664Z,20.95
2022-10-31T12:15:14.681Z,21.00
2022-10-31T12:16:14.661Z,20.99
2022-10-31T12:17:14.652Z,20.95
2022-10-31T12:18:14.628Z,21.06
2022-10-31T12:19:14.611Z,21.06
2022-10-31T12:20:14.626Z,21.15
2022-10-31T12:21:14.598Z,21.12
2022-10-31T12:22:14.580Z,21.17
2022-10-31T12:23:14.591Z,21.17
2022-10-31T12:24:14.559Z,21.12
2022-10-31T12:25:14.566Z,21.21
2022-10-31T12:26:14.550Z,21.25
2022-10-31T12:27:14.519Z,21.25
2022-10-31T12:28:14.519Z,21.30
2022-10-31T12:29:14.517Z,21.25
2022-10-31T12:30:14.615Z,21.29
2022-10-31T12:31:14.524Z,21.33
2022-10-31T12:32:14.479Z,21.25
2022-10-31T12:33:14.503Z,21.27
2022-10-31T12:34:14.467Z,21.36
2022-10-31T12:35:14.469Z,21.35
2022-10-31T12:36:15.588Z,21.30
2022-10-31T12:37:14.412Z,21.32
2022-10-31T12:38:14.422Z,21.33
2022-10-31T12:39:14.416Z,21.32
2022-10-31T12:40:14.536Z,21.27
2022-10-31T12:41:14.380Z,21.27
2022-10-31T12:42:14.469Z,21.27
2022-10-31T12:43:14.351Z,21.24
2022-10-31T12:44:14.345Z,21.22
2022-10-31T12:45:14.355Z,21.24
2022-10-31T12:46:14.323Z,21.24
2022-10-31T12:47:14.331Z,21.25
2022-10-31T12:48:14.303Z,21.27
2022-10-31T12:49:14.285Z,21.24
2022-10-31T12:50:14.365Z,21.12
2022-10-31T12:51:14.302Z,21.20
2022-10-31T12:52:14.267Z,21.12
2022-10-31T12:53:14.329Z,21.17
2022-10-31T12:54:14.236Z,21.15
2022-10-31T12:55:14.248Z,21.12
2022-10-31T12:56:14.242Z,21.20
2022-10-31T12:57:14.235Z,21.20
2022-10-31T12:58:14.199Z,21.22
2022-10-31T12:59:14.217Z,21.21
2022-10-31T13:00:14.228Z,21.25